PWSweather.com
Personal Weather Stations
Station Observations

SkegnessGB

Lat: 53.147585, Lon: 0.345774

Elevation: 18

Station Type: Fine Offset WH3080

http://www.skegnessweather.info/

High Low Average
Temperature 54.1°F12.3°C 45.0°F7.2°C 49.6°F9.8°C
Dew Point 51.6°F10.9°C 43.1°F6.2°C 48.4°F9.1°C
Winds 14.4 mph 23.2 kmh 3.5 mph 5.6 kmh 7.0 mph W11.3 kmh W
Wind Gusts 15.9 mph25.6 kmh 5.4 mph8.7 kmh 10.0 mph16.1 kmh
Humidity 100% 90% 96%
Pressure 29.58 in1001.7 mb 28.98 in981.4 mb -
Precipitation 0.12 in3.0 mm - -
Hour Temp Dew Point Humidity Winds Wind Gusts Pressure Precip Precip Rate Daily Precip Total
12:12 AM 46.8°F8.2°C 44.0°F6.7°C 90% 6.4 mph NW10.3 kmh NW 8.3 mph13.4 kmh 29.58 in1001.7 mb 0.00 in0.0 mm 0.00 in/hr0.0 mm/hr 0.00 in0.0 mm
12:29 AM 46.2°F7.9°C 43.5°F6.4°C 90% 6.6 mph WNW10.6 kmh WNW 9.8 mph15.8 kmh 29.57 in1001.4 mb 0.00 in0.0 mm 0.00 in/hr0.0 mm/hr 0.00 in0.0 mm
12:46 AM 46.2°F7.9°C 43.5°F6.4°C 90% 7.6 mph WNW12.2 kmh WNW 9.2 mph14.8 kmh 29.56 in1001.0 mb 0.00 in0.0 mm 0.00 in/hr0.0 mm/hr 0.00 in0.0 mm
01:03 AM 46.0°F7.8°C 43.3°F6.3°C 90% 6.1 mph WNW9.8 kmh WNW 8.3 mph13.4 kmh 29.56 in1001.0 mb 0.00 in0.0 mm 0.00 in/hr0.0 mm/hr 0.00 in0.0 mm
01:20 AM 45.3°F7.4°C 43.1°F6.2°C 92% 4.3 mph WNW6.9 kmh WNW 5.4 mph8.7 kmh 29.55 in1000.7 mb 0.00 in0.0 mm 0.00 in/hr0.0 mm/hr 0.00 in0.0 mm
01:37 AM 45.0°F7.2°C 43.1°F6.2°C 93% 5.3 mph WNW8.5 kmh WNW 9.2 mph14.8 kmh 29.54 in1000.3 mb 0.00 in0.0 mm 0.00 in/hr0.0 mm/hr 0.00 in0.0 mm
01:54 AM 45.0°F7.2°C 43.3°F6.3°C 94% 6.0 mph NW9.7 kmh NW 8.3 mph13.4 kmh 29.53 in1000.0 mb 0.00 in0.0 mm 0.00 in/hr0.0 mm/hr 0.00 in0.0 mm
02:11 AM 45.1°F7.3°C 43.5°F6.4°C 94% 7.3 mph NW11.7 kmh NW 7.6 mph12.2 kmh 29.52 in999.7 mb 0.00 in0.0 mm 0.00 in/hr0.0 mm/hr 0.00 in0.0 mm
02:28 AM 45.3°F7.4°C 43.7°F6.5°C 94% 5.1 mph NW8.2 kmh NW 6.0 mph9.7 kmh 29.51 in999.3 mb 0.00 in0.0 mm 0.00 in/hr0.0 mm/hr 0.00 in0.0 mm
02:45 AM 45.3°F7.4°C 43.7°F6.5°C 94% 5.2 mph WNW8.4 kmh WNW 6.0 mph9.7 kmh 29.51 in999.3 mb 0.00 in0.0 mm 0.00 in/hr0.0 mm/hr 0.00 in0.0 mm
03:02 AM 45.3°F7.4°C 44.0°F6.7°C 95% 3.9 mph WSW6.3 kmh WSW 5.4 mph8.7 kmh 29.50 in999.0 mb 0.00 in0.0 mm 0.00 in/hr0.0 mm/hr 0.00 in0.0 mm
03:19 AM 45.5°F7.5°C 44.2°F6.8°C 95% 3.5 mph WNW5.6 kmh WNW 6.0 mph9.7 kmh 29.49 in998.6 mb 0.00 in0.0 mm 0.00 in/hr0.0 mm/hr 0.00 in0.0 mm
03:36 AM 45.9°F7.7°C 44.5°F6.9°C 95% 4.4 mph WNW7.1 kmh WNW 6.0 mph9.7 kmh 29.48 in998.3 mb 0.00 in0.0 mm 0.00 in/hr0.0 mm/hr 0.00 in0.0 mm
03:53 AM 46.4°F8.0°C 45.0°F7.2°C 95% 6.4 mph WNW10.3 kmh WNW 8.3 mph13.4 kmh 29.47 in998.0 mb 0.00 in0.0 mm 0.00 in/hr0.0 mm/hr 0.00 in0.0 mm
04:10 AM 46.4°F8.0°C 45.0°F7.2°C 95% 6.9 mph WNW11.1 kmh WNW 10.7 mph17.2 kmh 29.46 in997.6 mb 0.00 in0.0 mm 0.00 in/hr0.0 mm/hr 0.00 in0.0 mm
04:27 AM 46.6°F8.1°C 45.5°F7.5°C 96% 7.9 mph WNW12.7 kmh WNW 9.8 mph15.8 kmh 29.46 in997.6 mb 0.00 in0.0 mm 0.00 in/hr0.0 mm/hr 0.00 in0.0 mm
04:44 AM 46.4°F8.0°C 45.6°F7.6°C 97% 9.0 mph WNW14.5 kmh WNW 13.0 mph20.9 kmh 29.45 in997.3 mb 0.01 in0.3 mm 0.04 in/hr1.0 mm/hr 0.01 in0.3 mm
05:01 AM 46.4°F8.0°C 45.9°F7.7°C 98% 6.9 mph W11.1 kmh W 8.3 mph13.4 kmh 29.45 in997.3 mb 0.01 in0.3 mm 0.00 in/hr0.0 mm/hr 0.01 in0.3 mm
05:18 AM 46.0°F7.8°C 45.5°F7.5°C 98% 6.5 mph NW10.5 kmh NW 9.8 mph15.8 kmh 29.45 in997.3 mb 0.01 in0.3 mm 0.00 in/hr0.0 mm/hr 0.01 in0.3 mm
05:35 AM 45.9°F7.7°C 45.6°F7.6°C 99% 4.9 mph W7.9 kmh W 6.9 mph11.1 kmh 29.44 in997.0 mb 0.00 in0.0 mm 0.00 in/hr0.0 mm/hr 0.01 in0.3 mm
05:52 AM 45.9°F7.7°C 45.9°F7.7°C 100% 6.6 mph WNW10.6 kmh WNW 12.1 mph19.5 kmh 29.43 in996.6 mb 0.01 in0.3 mm 0.04 in/hr1.0 mm/hr 0.02 in0.5 mm
06:09 AM 45.9°F7.7°C 45.9°F7.7°C 100% 5.4 mph NW8.7 kmh NW 6.0 mph9.7 kmh 29.42 in996.3 mb 0.01 in0.3 mm 0.00 in/hr0.0 mm/hr 0.04 in1.0 mm
06:26 AM 46.2°F7.9°C 46.2°F7.9°C 100% 4.9 mph W7.9 kmh W 6.0 mph9.7 kmh 29.42 in996.3 mb 0.02 in0.5 mm 0.04 in/hr1.0 mm/hr 0.04 in1.0 mm
06:43 AM 46.6°F8.1°C 46.6°F8.1°C 100% 6.6 mph NW10.6 kmh NW 11.4 mph18.3 kmh 29.41 in995.9 mb 0.01 in0.3 mm 0.00 in/hr0.0 mm/hr 0.04 in1.0 mm
07:00 AM 46.9°F8.3°C 46.9°F8.3°C 100% 5.5 mph WNW8.9 kmh WNW 7.6 mph12.2 kmh 29.40 in995.6 mb 0.01 in0.3 mm 0.00 in/hr0.0 mm/hr 0.04 in1.0 mm
07:17 AM 47.1°F8.4°C 47.1°F8.4°C 100% 5.4 mph WSW8.7 kmh WSW 6.9 mph11.1 kmh 29.39 in995.3 mb 0.01 in0.3 mm 0.00 in/hr0.0 mm/hr 0.05 in1.3 mm
07:34 AM 47.3°F8.5°C 47.3°F8.5°C 100% 4.6 mph WNW7.4 kmh WNW 6.9 mph11.1 kmh 29.38 in994.9 mb 0.01 in0.3 mm 0.00 in/hr0.0 mm/hr 0.05 in1.3 mm
07:51 AM 47.7°F8.7°C 47.7°F8.7°C 100% 6.0 mph NW9.7 kmh NW 8.3 mph13.4 kmh 29.37 in994.6 mb 0.01 in0.3 mm 0.00 in/hr0.0 mm/hr 0.05 in1.3 mm
08:08 AM 48.0°F8.9°C 48.0°F8.9°C 100% 8.9 mph W14.3 kmh W 9.2 mph14.8 kmh 29.36 in994.2 mb 0.00 in0.0 mm 0.00 in/hr0.0 mm/hr 0.05 in1.3 mm
08:25 AM 48.4°F9.1°C 48.4°F9.1°C 100% 6.8 mph WNW10.9 kmh WNW 8.3 mph13.4 kmh 29.36 in994.2 mb 0.00 in0.0 mm 0.00 in/hr0.0 mm/hr 0.05 in1.3 mm
08:42 AM 48.9°F9.4°C 48.7°F9.3°C 99% 7.0 mph WNW11.3 kmh WNW 9.2 mph14.8 kmh 29.34 in993.6 mb 0.01 in0.3 mm 0.04 in/hr1.0 mm/hr 0.06 in1.5 mm
08:59 AM 49.8°F9.9°C 49.6°F9.8°C 99% 7.3 mph NW11.7 kmh NW 10.7 mph17.2 kmh 29.34 in993.6 mb 0.01 in0.3 mm 0.00 in/hr0.0 mm/hr 0.06 in1.5 mm
09:16 AM 50.0°F10.0°C 49.2°F9.6°C 97% 6.9 mph W11.1 kmh W 9.2 mph14.8 kmh 29.33 in993.2 mb 0.01 in0.3 mm 0.00 in/hr0.0 mm/hr 0.06 in1.5 mm
09:33 AM 50.2°F10.1°C 49.6°F9.8°C 98% 7.3 mph NW11.7 kmh NW 10.7 mph17.2 kmh 29.32 in992.9 mb 0.00 in0.0 mm 0.00 in/hr0.0 mm/hr 0.06 in1.5 mm
09:50 AM 50.7°F10.4°C 50.2°F10.1°C 98% 7.7 mph NW12.4 kmh NW 11.4 mph18.3 kmh 29.31 in992.6 mb 0.00 in0.0 mm 0.00 in/hr0.0 mm/hr 0.06 in1.5 mm
10:07 AM 50.7°F10.4°C 50.2°F10.1°C 98% 5.8 mph NW9.3 kmh NW 10.7 mph17.2 kmh 29.30 in992.2 mb 0.00 in0.0 mm 0.00 in/hr0.0 mm/hr 0.06 in1.5 mm
10:24 AM 50.9°F10.5°C 50.1°F10.1°C 97% 8.2 mph NW13.2 kmh NW 11.4 mph18.3 kmh 29.29 in991.9 mb 0.01 in0.3 mm 0.04 in/hr1.0 mm/hr 0.07 in1.8 mm
10:41 AM 50.9°F10.5°C 50.1°F10.1°C 97% 8.5 mph WNW13.7 kmh WNW 11.4 mph18.3 kmh 29.29 in991.9 mb 0.01 in0.3 mm 0.00 in/hr0.0 mm/hr 0.07 in1.8 mm
10:58 AM 51.3°F10.7°C 50.4°F10.2°C 97% 8.2 mph NW13.2 kmh NW 10.7 mph17.2 kmh 29.28 in991.5 mb 0.01 in0.3 mm 0.00 in/hr0.0 mm/hr 0.07 in1.8 mm
11:15 AM 51.6°F10.9°C 50.8°F10.4°C 97% 8.4 mph WNW13.5 kmh WNW 9.8 mph15.8 kmh 29.28 in991.5 mb 0.01 in0.3 mm 0.00 in/hr0.0 mm/hr 0.08 in2.0 mm
11:32 AM 51.6°F10.9°C 50.8°F10.4°C 97% 8.8 mph WNW14.2 kmh WNW 9.8 mph15.8 kmh 29.27 in991.2 mb 0.01 in0.3 mm 0.00 in/hr0.0 mm/hr 0.08 in2.0 mm
11:49 AM 51.8°F11.0°C 50.7°F10.4°C 96% 7.6 mph WNW12.2 kmh WNW 9.8 mph15.8 kmh 29.26 in990.9 mb 0.01 in0.3 mm 0.00 in/hr0.0 mm/hr 0.08 in2.0 mm
12:06 PM 51.3°F10.7°C 50.4°F10.2°C 97% 5.5 mph NW8.9 kmh NW 6.9 mph11.1 kmh 29.25 in990.5 mb 0.01 in0.3 mm 0.00 in/hr0.0 mm/hr 0.08 in2.0 mm
12:23 PM 52.5°F11.4°C 51.4°F10.8°C 96% 9.2 mph W14.8 kmh W 12.1 mph19.5 kmh 29.24 in990.2 mb 0.00 in0.0 mm 0.00 in/hr0.0 mm/hr 0.08 in2.0 mm
12:40 PM 52.9°F11.6°C 51.2°F10.7°C 94% 8.1 mph NW13.0 kmh NW 10.7 mph17.2 kmh 29.23 in989.8 mb 0.00 in0.0 mm 0.00 in/hr0.0 mm/hr 0.08 in2.0 mm
12:57 PM 53.1°F11.7°C 51.4°F10.8°C 94% 8.6 mph WSW13.8 kmh WSW 10.7 mph17.2 kmh 29.23 in989.8 mb 0.00 in0.0 mm 0.00 in/hr0.0 mm/hr 0.08 in2.0 mm
01:14 PM 52.5°F11.4°C 50.8°F10.4°C 94% 9.0 mph W14.5 kmh W 10.7 mph17.2 kmh 29.22 in989.5 mb 0.01 in0.3 mm 0.01 in/hr0.3 mm/hr 0.09 in2.3 mm
01:31 PM 52.5°F11.4°C 51.1°F10.6°C 95% 8.1 mph NW13.0 kmh NW 10.7 mph17.2 kmh 29.21 in989.2 mb 0.01 in0.3 mm 0.00 in/hr0.0 mm/hr 0.09 in2.3 mm
01:48 PM 52.5°F11.4°C 50.6°F10.3°C 93% 9.1 mph W14.6 kmh W 13.0 mph20.9 kmh 29.20 in988.8 mb 0.01 in0.3 mm 0.00 in/hr0.0 mm/hr 0.09 in2.3 mm
02:05 PM 53.1°F11.7°C 50.8°F10.4°C 92% 11.3 mph NW18.2 kmh NW 13.0 mph20.9 kmh 29.19 in988.5 mb 0.01 in0.3 mm 0.00 in/hr0.0 mm/hr 0.09 in2.3 mm
02:22 PM 54.1°F12.3°C 51.6°F10.9°C 91% 8.1 mph W13.0 kmh W 9.8 mph15.8 kmh 29.18 in988.1 mb 0.00 in0.0 mm 0.00 in/hr0.0 mm/hr 0.09 in2.3 mm
02:39 PM 53.6°F12.0°C 50.7°F10.4°C 90% 9.7 mph NW15.6 kmh NW 14.5 mph23.3 kmh 29.16 in987.5 mb 0.00 in0.0 mm 0.00 in/hr0.0 mm/hr 0.09 in2.3 mm
02:56 PM 53.2°F11.8°C 51.0°F10.6°C 92% 6.9 mph WNW11.1 kmh WNW 9.8 mph15.8 kmh 29.16 in987.5 mb 0.00 in0.0 mm 0.00 in/hr0.0 mm/hr 0.09 in2.3 mm
03:13 PM 52.9°F11.6°C 50.9°F10.5°C 93% 7.6 mph SE12.2 kmh SE 10.7 mph17.2 kmh 29.15 in987.1 mb 0.00 in0.0 mm 0.00 in/hr0.0 mm/hr 0.09 in2.3 mm
03:30 PM 53.4°F11.9°C 51.2°F10.7°C 92% 9.1 mph NNW14.6 kmh NNW 13.0 mph20.9 kmh 29.13 in986.5 mb 0.00 in0.0 mm 0.00 in/hr0.0 mm/hr 0.09 in2.3 mm
03:42 PM 53.4°F11.9°C 51.2°F10.7°C 92% 7.3 mph W11.7 kmh W 8.3 mph13.4 kmh 29.12 in986.1 mb 0.00 in0.0 mm 0.00 in/hr0.0 mm/hr 0.09 in2.3 mm
03:47 PM 53.4°F11.9°C 51.2°F10.7°C 92% 8.6 mph WSW13.8 kmh WSW 13.0 mph20.9 kmh 29.12 in986.1 mb 0.00 in0.0 mm 0.00 in/hr0.0 mm/hr 0.09 in2.3 mm
03:52 PM 53.4°F11.9°C 51.2°F10.7°C 92% 9.4 mph SW15.1 kmh SW 13.0 mph20.9 kmh 29.12 in986.1 mb 0.00 in0.0 mm 0.00 in/hr0.0 mm/hr 0.09 in2.3 mm
04:09 PM 53.4°F11.9°C 51.2°F10.7°C 92% 8.4 mph S13.5 kmh S 12.1 mph19.5 kmh 29.11 in985.8 mb 0.00 in0.0 mm 0.00 in/hr0.0 mm/hr 0.09 in2.3 mm
04:26 PM 52.9°F11.6°C 50.9°F10.5°C 93% 8.7 mph SE14.0 kmh SE 13.6 mph21.9 kmh 29.10 in985.4 mb 0.01 in0.3 mm 0.04 in/hr1.0 mm/hr 0.11 in2.8 mm
04:43 PM 52.7°F11.5°C 50.7°F10.4°C 93% 9.5 mph NE15.3 kmh NE 15.2 mph24.5 kmh 29.09 in985.1 mb 0.01 in0.3 mm 0.00 in/hr0.0 mm/hr 0.11 in2.8 mm
05:00 PM 52.5°F11.4°C 50.6°F10.3°C 93% 7.9 mph N12.7 kmh N 9.8 mph15.8 kmh 29.07 in984.4 mb 0.01 in0.3 mm 0.00 in/hr0.0 mm/hr 0.11 in2.8 mm
05:17 PM 52.7°F11.5°C 50.7°F10.4°C 93% 9.9 mph NNW15.9 kmh NNW 13.0 mph20.9 kmh 29.06 in984.1 mb 0.00 in0.0 mm 0.00 in/hr0.0 mm/hr 0.11 in2.8 mm
05:34 PM 52.7°F11.5°C 50.4°F10.2°C 92% 11.5 mph NW18.5 kmh NW 15.9 mph25.6 kmh 29.06 in984.1 mb 0.00 in0.0 mm 0.00 in/hr0.0 mm/hr 0.11 in2.8 mm
05:51 PM 52.2°F11.2°C 50.2°F10.1°C 93% 10.1 mph W16.3 kmh W 14.5 mph23.3 kmh 29.05 in983.7 mb 0.00 in0.0 mm 0.00 in/hr0.0 mm/hr 0.11 in2.8 mm
06:08 PM 51.8°F11.0°C 50.1°F10.1°C 94% 14.4 mph SE23.2 kmh SE 15.2 mph24.5 kmh 29.05 in983.7 mb 0.00 in0.0 mm 0.00 in/hr0.0 mm/hr 0.11 in2.8 mm
06:25 PM 51.6°F10.9°C 50.5°F10.3°C 96% 10.1 mph WSW16.3 kmh WSW 12.1 mph19.5 kmh 29.05 in983.7 mb 0.00 in0.0 mm 0.00 in/hr0.0 mm/hr 0.11 in2.8 mm
06:42 PM 51.8°F11.0°C 50.4°F10.2°C 95% 10.6 mph SW17.1 kmh SW 14.5 mph23.3 kmh 29.04 in983.4 mb 0.00 in0.0 mm 0.00 in/hr0.0 mm/hr 0.11 in2.8 mm
06:59 PM 51.6°F10.9°C 50.2°F10.1°C 95% 10.6 mph W17.1 kmh W 14.5 mph23.3 kmh 29.04 in983.4 mb 0.00 in0.0 mm 0.00 in/hr0.0 mm/hr 0.11 in2.8 mm
07:16 PM 51.3°F10.7°C 50.2°F10.1°C 96% 10.1 mph NW16.3 kmh NW 13.0 mph20.9 kmh 29.04 in983.4 mb 0.00 in0.0 mm 0.00 in/hr0.0 mm/hr 0.11 in2.8 mm
07:33 PM 51.1°F10.6°C 50.3°F10.2°C 97% 7.8 mph WSW12.6 kmh WSW 9.8 mph15.8 kmh 29.04 in983.4 mb 0.00 in0.0 mm 0.00 in/hr0.0 mm/hr 0.11 in2.8 mm
07:50 PM 51.1°F10.6°C 50.3°F10.2°C 97% 9.1 mph W14.6 kmh W 11.4 mph18.3 kmh 29.04 in983.4 mb 0.00 in0.0 mm 0.00 in/hr0.0 mm/hr 0.11 in2.8 mm
08:07 PM 50.9°F10.5°C 50.1°F10.1°C 97% 8.4 mph NW13.5 kmh NW 9.8 mph15.8 kmh 29.04 in983.4 mb 0.00 in0.0 mm 0.00 in/hr0.0 mm/hr 0.11 in2.8 mm
08:24 PM 50.5°F10.3°C 49.7°F9.8°C 97% 7.1 mph NW11.4 kmh NW 9.2 mph14.8 kmh 29.03 in983.1 mb 0.00 in0.0 mm 0.00 in/hr0.0 mm/hr 0.11 in2.8 mm
08:41 PM 50.2°F10.1°C 49.4°F9.7°C 97% 8.0 mph WNW12.9 kmh WNW 9.8 mph15.8 kmh 29.03 in983.1 mb 0.00 in0.0 mm 0.00 in/hr0.0 mm/hr 0.11 in2.8 mm
08:58 PM 50.0°F10.0°C 48.9°F9.4°C 96% 6.3 mph W10.1 kmh W 9.2 mph14.8 kmh 29.03 in983.1 mb 0.00 in0.0 mm 0.00 in/hr0.0 mm/hr 0.11 in2.8 mm
09:15 PM 49.6°F9.8°C 49.1°F9.5°C 98% 5.9 mph NW9.5 kmh NW 8.3 mph13.4 kmh 29.02 in982.7 mb 0.00 in0.0 mm 0.00 in/hr0.0 mm/hr 0.11 in2.8 mm
09:32 PM 49.6°F9.8°C 49.4°F9.7°C 99% 6.1 mph NNW9.8 kmh NNW 11.4 mph18.3 kmh 29.01 in982.4 mb 0.00 in0.0 mm 0.00 in/hr0.0 mm/hr 0.11 in2.8 mm
09:49 PM 49.6°F9.8°C 49.4°F9.7°C 99% 4.9 mph WSW7.9 kmh WSW 6.9 mph11.1 kmh 29.01 in982.4 mb 0.00 in0.0 mm 0.00 in/hr0.0 mm/hr 0.11 in2.8 mm
10:06 PM 49.6°F9.8°C 49.4°F9.7°C 99% 6.3 mph S10.1 kmh S 7.6 mph12.2 kmh 29.01 in982.4 mb 0.00 in0.0 mm 0.00 in/hr0.0 mm/hr 0.11 in2.8 mm
10:23 PM 49.3°F9.6°C 49.0°F9.4°C 99% 5.8 mph WNW9.3 kmh WNW 9.2 mph14.8 kmh 29.00 in982.1 mb 0.00 in0.0 mm 0.00 in/hr0.0 mm/hr 0.11 in2.8 mm
10:40 PM 49.1°F9.5°C 48.8°F9.3°C 99% 5.3 mph NW8.5 kmh NW 6.9 mph11.1 kmh 29.00 in982.1 mb 0.01 in0.3 mm 0.04 in/hr1.0 mm/hr 0.12 in3.0 mm
10:57 PM 48.9°F9.4°C 48.7°F9.3°C 99% 5.2 mph WNW8.4 kmh WNW 7.6 mph12.2 kmh 28.99 in981.7 mb 0.01 in0.3 mm 0.00 in/hr0.0 mm/hr 0.12 in3.0 mm
11:14 PM 48.7°F9.3°C 48.5°F9.2°C 99% 7.1 mph NNW11.4 kmh NNW 9.8 mph15.8 kmh 28.98 in981.4 mb 0.02 in0.5 mm 0.01 in/hr0.3 mm/hr 0.01 in0.3 mm
11:31 PM 48.6°F9.2°C 48.3°F9.1°C 99% 6.4 mph WNW10.3 kmh WNW 7.6 mph12.2 kmh 28.98 in981.4 mb 0.02 in0.5 mm 0.00 in/hr0.0 mm/hr 0.01 in0.3 mm
11:48 PM 48.6°F9.2°C 48.3°F9.1°C 99% 5.6 mph W9.0 kmh W 7.6 mph12.2 kmh 28.98 in981.4 mb 0.01 in0.3 mm 0.00 in/hr0.0 mm/hr 0.01 in0.3 mm